sensor_id;sensor_type;location;lat;lon;timestamp;temperature;humidity
23556;DHT22;11956;53.184;8.578;2022-08-19T00:00:36;18.30;99.90
23556;DHT22;11956;53.184;8.578;2022-08-19T00:03:37;18.30;99.90
23556;DHT22;11956;53.184;8.578;2022-08-19T00:06:40;18.40;99.90
23556;DHT22;11956;53.184;8.578;2022-08-19T00:09:42;18.40;99.90
23556;DHT22;11956;53.184;8.578;2022-08-19T00:12:43;18.40;99.90
23556;DHT22;11956;53.184;8.578;2022-08-19T00:15:44;18.50;99.90
23556;DHT22;11956;53.184;8.578;2022-08-19T00:18:46;18.50;99.90
23556;DHT22;11956;53.184;8.578;2022-08-19T00:21:47;18.50;99.90
23556;DHT22;11956;53.184;8.578;2022-08-19T00:24:48;18.50;99.90
23556;DHT22;11956;53.184;8.578;2022-08-19T00:27:49;18.50;99.90
23556;DHT22;11956;53.184;8.578;2022-08-19T00:30:50;18.50;99.90
23556;DHT22;11956;53.184;8.578;2022-08-19T00:33:52;18.60;99.90
23556;DHT22;11956;53.184;8.578;2022-08-19T00:36:53;18.70;99.90
23556;DHT22;11956;53.184;8.578;2022-08-19T00:39:55;18.70;99.90
23556;DHT22;11956;53.184;8.578;2022-08-19T00:42:56;18.70;99.90
23556;DHT22;11956;53.184;8.578;2022-08-19T00:45:57;18.60;99.90
23556;DHT22;11956;53.184;8.578;2022-08-19T00:48:59;18.60;99.90
23556;DHT22;11956;53.184;8.578;2022-08-19T00:52:07;18.60;99.90
23556;DHT22;11956;53.184;8.578;2022-08-19T00:55:10;18.60;99.90
23556;DHT22;11956;53.184;8.578;2022-08-19T00:58:16;18.60;99.90
23556;DHT22;11956;53.184;8.578;2022-08-19T01:01:18;18.60;99.90
23556;DHT22;11956;53.184;8.578;2022-08-19T01:04:19;18.70;99.90
23556;DHT22;11956;53.184;8.578;2022-08-19T01:07:20;18.70;99.90
23556;DHT22;11956;53.184;8.578;2022-08-19T01:10:24;18.70;99.90
23556;DHT22;11956;53.184;8.578;2022-08-19T01:13:30;18.70;99.90
23556;DHT22;11956;53.184;8.578;2022-08-19T01:16:34;18.70;99.90
23556;DHT22;11956;53.184;8.578;2022-08-19T01:19:39;18.70;99.90
23556;DHT22;11956;53.184;8.578;2022-08-19T01:22:53;18.80;99.90
23556;DHT22;11956;53.184;8.578;2022-08-19T01:25:56;18.80;99.90
23556;DHT22;11956;53.184;8.578;2022-08-19T01:28:59;18.80;99.90
23556;DHT22;11956;53.184;8.578;2022-08-19T01:32:01;18.70;99.90
23556;DHT22;11956;53.184;8.578;2022-08-19T01:35:03;18.70;99.90
23556;DHT22;11956;53.184;8.578;2022-08-19T01:38:07;18.70;99.90
23556;DHT22;11956;53.184;8.578;2022-08-19T01:41:11;18.70;99.90
23556;DHT22;11956;53.184;8.578;2022-08-19T01:44:13;18.70;99.90
23556;DHT22;11956;53.184;8.578;2022-08-19T01:47:14;18.70;99.90
23556;DHT22;11956;53.184;8.578;2022-08-19T01:50:15;18.70;99.90
23556;DHT22;11956;53.184;8.578;2022-08-19T01:53:17;18.70;99.90
23556;DHT22;11956;53.184;8.578;2022-08-19T01:56:19;18.70;99.90
23556;DHT22;11956;53.184;8.578;2022-08-19T01:59:21;18.70;99.90
23556;DHT22;11956;53.184;8.578;2022-08-19T02:02:23;18.60;99.90
23556;DHT22;11956;53.184;8.578;2022-08-19T02:05:25;18.60;99.90
23556;DHT22;11956;53.184;8.578;2022-08-19T02:08:27;18.60;99.90
23556;DHT22;11956;53.184;8.578;2022-08-19T02:11:32;18.60;99.90
23556;DHT22;11956;53.184;8.578;2022-08-19T02:14:35;18.50;99.90
23556;DHT22;11956;53.184;8.578;2022-08-19T02:17:36;18.50;99.90
23556;DHT22;11956;53.184;8.578;2022-08-19T02:20:38;18.60;99.90
23556;DHT22;11956;53.184;8.578;2022-08-19T02:23:40;18.50;99.90
23556;DHT22;11956;53.184;8.578;2022-08-19T02:26:41;18.50;99.90
23556;DHT22;11956;53.184;8.578;2022-08-19T02:29:42;18.50;99.90
23556;DHT22;11956;53.184;8.578;2022-08-19T02:32:44;18.60;99.90
23556;DHT22;11956;53.184;8.578;2022-08-19T02:35:46;18.60;99.90
23556;DHT22;11956;53.184;8.578;2022-08-19T02:38:47;18.60;99.90
23556;DHT22;11956;53.184;8.578;2022-08-19T02:41:48;18.60;99.90
23556;DHT22;11956;53.184;8.578;2022-08-19T02:44:51;18.70;99.90
23556;DHT22;11956;53.184;8.578;2022-08-19T02:47:52;18.70;99.90
23556;DHT22;11956;53.184;8.578;2022-08-19T02:50:53;18.70;99.90
23556;DHT22;11956;53.184;8.578;2022-08-19T02:53:57;18.60;99.90
23556;DHT22;11956;53.184;8.578;2022-08-19T02:56:59;18.60;99.90
23556;DHT22;11956;53.184;8.578;2022-08-19T03:00:00;18.60;99.90
23556;DHT22;11956;53.184;8.578;2022-08-19T03:03:02;18.60;99.90
23556;DHT22;11956;53.184;8.578;2022-08-19T03:06:13;18.60;99.90
23556;DHT22;11956;53.184;8.578;2022-08-19T03:09:15;18.50;99.90
23556;DHT22;11956;53.184;8.578;2022-08-19T03:12:17;18.40;99.90
23556;DHT22;11956;53.184;8.578;2022-08-19T03:15:18;18.30;99.90
23556;DHT22;11956;53.184;8.578;2022-08-19T03:18:19;18.10;99.90
23556;DHT22;11956;53.184;8.578;2022-08-19T03:21:23;18.00;99.90
23556;DHT22;11956;53.184;8.578;2022-08-19T03:24:26;17.90;99.90
23556;DHT22;11956;53.184;8.578;2022-08-19T03:27:27;17.70;99.90
23556;DHT22;11956;53.184;8.578;2022-08-19T03:30:27;17.60;99.90
23556;DHT22;11956;53.184;8.578;2022-08-19T03:33:30;17.50;99.90
23556;DHT22;11956;53.184;8.578;2022-08-19T03:36:31;17.40;99.90
23556;DHT22;11956;53.184;8.578;2022-08-19T03:39:32;17.30;99.90
23556;DHT22;11956;53.184;8.578;2022-08-19T03:42:34;17.20;99.90
23556;DHT22;11956;53.184;8.578;2022-08-19T03:45:35;17.10;99.90
23556;DHT22;11956;53.184;8.578;2022-08-19T03:48:37;17.10;99.90
23556;DHT22;11956;53.184;8.578;2022-08-19T03:51:38;17.00;99.90
23556;DHT22;11956;53.184;8.578;2022-08-19T03:54:39;16.90;99.90
23556;DHT22;11956;53.184;8.578;2022-08-19T03:57:40;16.90;99.90
23556;DHT22;11956;53.184;8.578;2022-08-19T04:00:42;16.80;99.90
23556;DHT22;11956;53.184;8.578;2022-08-19T04:03:44;16.70;99.90
23556;DHT22;11956;53.184;8.578;2022-08-19T04:06:48;16.70;99.90
23556;DHT22;11956;53.184;8.578;2022-08-19T04:09:51;16.70;99.90
23556;DHT22;11956;53.184;8.578;2022-08-19T04:12:52;16.60;99.90
23556;DHT22;11956;53.184;8.578;2022-08-19T04:15:53;16.60;99.90
23556;DHT22;11956;53.184;8.578;2022-08-19T04:18:59;16.60;99.90
23556;DHT22;11956;53.184;8.578;2022-08-19T04:22:02;16.60;99.90
23556;DHT22;11956;53.184;8.578;2022-08-19T04:25:03;16.50;99.90
23556;DHT22;11956;53.184;8.578;2022-08-19T04:28:04;16.50;99.90
23556;DHT22;11956;53.184;8.578;2022-08-19T04:31:05;16.50;99.90
23556;DHT22;11956;53.184;8.578;2022-08-19T04:34:10;16.50;99.90
23556;DHT22;11956;53.184;8.578;2022-08-19T04:37:12;16.60;99.90
23556;DHT22;11956;53.184;8.578;2022-08-19T04:40:13;16.60;99.90
23556;DHT22;11956;53.184;8.578;2022-08-19T04:43:34;16.70;99.90
23556;DHT22;11956;53.184;8.578;2022-08-19T04:46:36;16.80;99.90
23556;DHT22;11956;53.184;8.578;2022-08-19T04:49:37;16.80;99.90
23556;DHT22;11956;53.184;8.578;2022-08-19T04:52:39;16.90;99.90
23556;DHT22;11956;53.184;8.578;2022-08-19T04:55:43;17.00;99.90
23556;DHT22;11956;53.184;8.578;2022-08-19T04:58:44;17.00;99.90
23556;DHT22;11956;53.184;8.578;2022-08-19T05:01:46;17.10;99.90
23556;DHT22;11956;53.184;8.578;2022-08-19T05:04:59;17.10;99.90
23556;DHT22;11956;53.184;8.578;2022-08-19T05:08:00;17.20;99.90
23556;DHT22;11956;53.184;8.578;2022-08-19T05:11:08;17.30;99.90
23556;DHT22;11956;53.184;8.578;2022-08-19T05:14:16;17.30;99.90
23556;DHT22;11956;53.184;8.578;2022-08-19T05:17:17;17.40;99.90
23556;DHT22;11956;53.184;8.578;2022-08-19T05:20:18;17.30;99.90
23556;DHT22;11956;53.184;8.578;2022-08-19T05:23:37;17.40;99.90
23556;DHT22;11956;53.184;8.578;2022-08-19T05:26:41;17.60;99.90
23556;DHT22;11956;53.184;8.578;2022-08-19T05:29:44;18.00;99.90
23556;DHT22;11956;53.184;8.578;2022-08-19T05:32:44;18.20;99.90
23556;DHT22;11956;53.184;8.578;2022-08-19T05:35:45;18.70;99.90
23556;DHT22;11956;53.184;8.578;2022-08-19T05:38:48;19.70;99.90
23556;DHT22;11956;53.184;8.578;2022-08-19T05:41:54;20.40;99.90
23556;DHT22;11956;53.184;8.578;2022-08-19T05:44:57;20.10;99.90
23556;DHT22;11956;53.184;8.578;2022-08-19T05:47:58;19.50;99.90
23556;DHT22;11956;53.184;8.578;2022-08-19T05:51:04;19.30;99.90
23556;DHT22;11956;53.184;8.578;2022-08-19T05:54:07;19.20;99.90
23556;DHT22;11956;53.184;8.578;2022-08-19T05:57:09;19.20;99.90
23556;DHT22;11956;53.184;8.578;2022-08-19T06:00:11;19.60;99.90
23556;DHT22;11956;53.184;8.578;2022-08-19T06:03:12;19.80;99.90
23556;DHT22;11956;53.184;8.578;2022-08-19T06:06:15;20.20;99.90
23556;DHT22;11956;53.184;8.578;2022-08-19T06:09:16;21.30;99.90
23556;DHT22;11956;53.184;8.578;2022-08-19T06:12:18;21.90;99.90
23556;DHT22;11956;53.184;8.578;2022-08-19T06:15:19;21.60;99.90
23556;DHT22;11956;53.184;8.578;2022-08-19T06:18:20;21.20;99.90
23556;DHT22;11956;53.184;8.578;2022-08-19T06:21:23;20.80;99.90
23556;DHT22;11956;53.184;8.578;2022-08-19T06:24:27;21.80;99.90
23556;DHT22;11956;53.184;8.578;2022-08-19T06:27:28;22.90;99.90
23556;DHT22;11956;53.184;8.578;2022-08-19T06:30:31;23.80;99.90
23556;DHT22;11956;53.184;8.578;2022-08-19T06:33:32;24.30;99.90
23556;DHT22;11956;53.184;8.578;2022-08-19T06:36:37;25.00;99.90
23556;DHT22;11956;53.184;8.578;2022-08-19T06:39:42;25.80;99.90
23556;DHT22;11956;53.184;8.578;2022-08-19T06:42:44;25.50;99.90
23556;DHT22;11956;53.184;8.578;2022-08-19T06:45:45;25.40;99.90
23556;DHT22;11956;53.184;8.578;2022-08-19T06:48:47;25.90;99.90
23556;DHT22;11956;53.184;8.578;2022-08-19T06:51:49;26.30;99.90
23556;DHT22;11956;53.184;8.578;2022-08-19T06:54:50;26.90;99.90
23556;DHT22;11956;53.184;8.578;2022-08-19T06:57:51;28.50;99.90
23556;DHT22;11956;53.184;8.578;2022-08-19T07:00:53;29.00;97.80
23556;DHT22;11956;53.184;8.578;2022-08-19T07:03:54;28.90;97.60
23556;DHT22;11956;53.184;8.578;2022-08-19T07:07:08;29.50;96.00
23556;DHT22;11956;53.184;8.578;2022-08-19T07:10:12;29.30;96.30
23556;DHT22;11956;53.184;8.578;2022-08-19T07:13:13;28.30;97.80
23556;DHT22;11956;53.184;8.578;2022-08-19T07:16:17;28.20;97.70
23556;DHT22;11956;53.184;8.578;2022-08-19T07:19:20;28.80;97.00
23556;DHT22;11956;53.184;8.578;2022-08-19T07:22:22;29.90;95.40
23556;DHT22;11956;53.184;8.578;2022-08-19T07:25:23;30.50;94.40
23556;DHT22;11956;53.184;8.578;2022-08-19T07:28:24;30.60;93.40
23556;DHT22;11956;53.184;8.578;2022-08-19T07:31:27;31.20;92.60
23556;DHT22;11956;53.184;8.578;2022-08-19T07:34:30;32.00;89.40
23556;DHT22;11956;53.184;8.578;2022-08-19T07:37:31;30.70;91.50
23556;DHT22;11956;53.184;8.578;2022-08-19T07:40:32;31.00;90.90
23556;DHT22;11956;53.184;8.578;2022-08-19T07:43:33;31.30;90.70
23556;DHT22;11956;53.184;8.578;2022-08-19T07:46:37;31.50;90.00
23556;DHT22;11956;53.184;8.578;2022-08-19T07:49:40;31.30;89.10
23556;DHT22;11956;53.184;8.578;2022-08-19T07:52:41;31.20;90.10
23556;DHT22;11956;53.184;8.578;2022-08-19T07:55:44;32.20;86.20
23556;DHT22;11956;53.184;8.578;2022-08-19T07:58:47;31.90;84.80
23556;DHT22;11956;53.184;8.578;2022-08-19T08:01:50;32.00;83.60
23556;DHT22;11956;53.184;8.578;2022-08-19T08:04:51;31.30;85.20
23556;DHT22;11956;53.184;8.578;2022-08-19T08:08:11;31.50;85.90
23556;DHT22;11956;53.184;8.578;2022-08-19T08:11:31;32.20;82.10
23556;DHT22;11956;53.184;8.578;2022-08-19T08:14:42;33.00;80.50
23556;DHT22;11956;53.184;8.578;2022-08-19T08:17:47;34.00;78.20
23556;DHT22;11956;53.184;8.578;2022-08-19T08:20:49;33.90;76.70
23556;DHT22;11956;53.184;8.578;2022-08-19T08:23:50;34.30;75.10
23556;DHT22;11956;53.184;8.578;2022-08-19T08:26:52;35.70;72.50
23556;DHT22;11956;53.184;8.578;2022-08-19T08:29:53;35.70;70.50
23556;DHT22;11956;53.184;8.578;2022-08-19T08:32:54;36.80;68.40
23556;DHT22;11956;53.184;8.578;2022-08-19T08:35:56;36.00;68.30
23556;DHT22;11956;53.184;8.578;2022-08-19T08:38:57;37.30;64.40
23556;DHT22;11956;53.184;8.578;2022-08-19T08:42:20;35.80;66.30
23556;DHT22;11956;53.184;8.578;2022-08-19T08:45:27;35.50;64.80
23556;DHT22;11956;53.184;8.578;2022-08-19T08:48:44;33.30;69.10
23556;DHT22;11956;53.184;8.578;2022-08-19T08:52:18;32.70;70.80
23556;DHT22;11956;53.184;8.578;2022-08-19T08:55:28;31.60;72.20
23556;DHT22;11956;53.184;8.578;2022-08-19T09:01:59;31.30;72.90
23556;DHT22;11956;53.184;8.578;2022-08-19T09:05:00;31.10;73.40
23556;DHT22;11956;53.184;8.578;2022-08-19T09:15:07;32.80;70.50
23556;DHT22;11956;53.184;8.578;2022-08-19T09:18:10;32.60;70.70
23556;DHT22;11956;53.184;8.578;2022-08-19T09:21:12;31.80;72.70
23556;DHT22;11956;53.184;8.578;2022-08-19T09:24:13;33.00;69.60
23556;DHT22;11956;53.184;8.578;2022-08-19T09:27:14;34.90;65.70
23556;DHT22;11956;53.184;8.578;2022-08-19T09:30:20;35.70;62.90
23556;DHT22;11956;53.184;8.578;2022-08-19T09:33:24;35.70;62.80
23556;DHT22;11956;53.184;8.578;2022-08-19T09:36:27;36.80;60.50
23556;DHT22;11956;53.184;8.578;2022-08-19T09:39:30;36.00;60.00
23556;DHT22;11956;53.184;8.578;2022-08-19T09:42:31;35.90;61.10
23556;DHT22;11956;53.184;8.578;2022-08-19T09:45:32;36.10;58.80
23556;DHT22;11956;53.184;8.578;2022-08-19T09:48:33;36.10;59.30
23556;DHT22;11956;53.184;8.578;2022-08-19T09:51:34;36.90;56.60
23556;DHT22;11956;53.184;8.578;2022-08-19T09:54:35;37.80;56.10
23556;DHT22;11956;53.184;8.578;2022-08-19T09:57:38;39.90;54.10
23556;DHT22;11956;53.184;8.578;2022-08-19T10:00:39;41.10;51.50
23556;DHT22;11956;53.184;8.578;2022-08-19T10:03:40;40.60;50.90
23556;DHT22;11956;53.184;8.578;2022-08-19T10:06:41;39.50;49.70
23556;DHT22;11956;53.184;8.578;2022-08-19T10:09:42;37.20;51.80
23556;DHT22;11956;53.184;8.578;2022-08-19T10:12:43;36.70;53.40
23556;DHT22;11956;53.184;8.578;2022-08-19T10:15:47;37.10;51.70
23556;DHT22;11956;53.184;8.578;2022-08-19T10:18:52;38.10;50.20
23556;DHT22;11956;53.184;8.578;2022-08-19T10:21:54;39.70;47.80
23556;DHT22;11956;53.184;8.578;2022-08-19T10:24:55;38.20;46.80
23556;DHT22;11956;53.184;8.578;2022-08-19T10:27:56;38.50;47.30
23556;DHT22;11956;53.184;8.578;2022-08-19T10:30:57;37.60;47.90
23556;DHT22;11956;53.184;8.578;2022-08-19T10:34:00;36.50;46.40
23556;DHT22;11956;53.184;8.578;2022-08-19T10:37:02;36.50;47.80
23556;DHT22;11956;53.184;8.578;2022-08-19T10:40:07;36.50;47.60
23556;DHT22;11956;53.184;8.578;2022-08-19T10:43:08;37.20;47.20
23556;DHT22;11956;53.184;8.578;2022-08-19T10:46:12;37.20;46.60
23556;DHT22;11956;53.184;8.578;2022-08-19T10:49:15;35.40;49.20
23556;DHT22;11956;53.184;8.578;2022-08-19T10:52:16;35.20;49.00
23556;DHT22;11956;53.184;8.578;2022-08-19T10:55:36;33.30;52.90
23556;DHT22;11956;53.184;8.578;2022-08-19T10:58:56;31.20;58.40
23556;DHT22;11956;53.184;8.578;2022-08-19T11:02:03;29.40;63.60
23556;DHT22;11956;53.184;8.578;2022-08-19T11:05:06;28.80;65.90
23556;DHT22;11956;53.184;8.578;2022-08-19T11:08:08;28.20;66.70
23556;DHT22;11956;53.184;8.578;2022-08-19T11:11:12;27.80;65.80
23556;DHT22;11956;53.184;8.578;2022-08-19T11:14:15;27.50;67.90
23556;DHT22;11956;53.184;8.578;2022-08-19T11:17:21;27.10;66.30
23556;DHT22;11956;53.184;8.578;2022-08-19T11:20:23;26.90;66.30
23556;DHT22;11956;53.184;8.578;2022-08-19T11:23:24;26.80;66.80
23556;DHT22;11956;53.184;8.578;2022-08-19T11:26:26;26.70;69.10
23556;DHT22;11956;53.184;8.578;2022-08-19T11:29:28;26.70;69.70
23556;DHT22;11956;53.184;8.578;2022-08-19T11:32:29;26.90;69.10
23556;DHT22;11956;53.184;8.578;2022-08-19T11:35:30;26.70;68.20
23556;DHT22;11956;53.184;8.578;2022-08-19T11:38:34;26.50;68.70
23556;DHT22;11956;53.184;8.578;2022-08-19T11:41:36;26.40;64.90
23556;DHT22;11956;53.184;8.578;2022-08-19T11:44:37;26.40;67.40
23556;DHT22;11956;53.184;8.578;2022-08-19T11:47:37;26.40;69.30
23556;DHT22;11956;53.184;8.578;2022-08-19T11:50:39;26.50;67.40
23556;DHT22;11956;53.184;8.578;2022-08-19T11:53:41;26.60;68.70
23556;DHT22;11956;53.184;8.578;2022-08-19T11:56:43;26.50;68.30
23556;DHT22;11956;53.184;8.578;2022-08-19T11:59:51;26.40;66.90
23556;DHT22;11956;53.184;8.578;2022-08-19T12:02:53;26.30;67.90
23556;DHT22;11956;53.184;8.578;2022-08-19T12:05:55;26.40;67.70
23556;DHT22;11956;53.184;8.578;2022-08-19T12:09:02;26.60;67.90
23556;DHT22;11956;53.184;8.578;2022-08-19T12:12:05;26.70;67.90
23556;DHT22;11956;53.184;8.578;2022-08-19T12:15:07;26.70;70.70
23556;DHT22;11956;53.184;8.578;2022-08-19T12:18:09;26.80;71.40
23556;DHT22;11956;53.184;8.578;2022-08-19T12:21:10;26.70;71.50
23556;DHT22;11956;53.184;8.578;2022-08-19T12:24:11;26.90;71.60
23556;DHT22;11956;53.184;8.578;2022-08-19T12:27:12;26.90;71.40
23556;DHT22;11956;53.184;8.578;2022-08-19T12:30:14;26.90;71.20
23556;DHT22;11956;53.184;8.578;2022-08-19T12:33:15;26.80;71.00
23556;DHT22;11956;53.184;8.578;2022-08-19T12:36:16;26.80;69.70
23556;DHT22;11956;53.184;8.578;2022-08-19T12:39:18;26.90;68.80
23556;DHT22;11956;53.184;8.578;2022-08-19T12:42:19;26.70;69.10
23556;DHT22;11956;53.184;8.578;2022-08-19T12:45:22;26.70;69.90
23556;DHT22;11956;53.184;8.578;2022-08-19T12:48:23;26.70;69.70
23556;DHT22;11956;53.184;8.578;2022-08-19T12:51:24;26.80;70.90
23556;DHT22;11956;53.184;8.578;2022-08-19T12:54:27;26.50;70.70
23556;DHT22;11956;53.184;8.578;2022-08-19T12:57:31;26.40;72.50
23556;DHT22;11956;53.184;8.578;2022-08-19T13:00:35;26.30;72.60
23556;DHT22;11956;53.184;8.578;2022-08-19T13:03:36;26.40;73.00
23556;DHT22;11956;53.184;8.578;2022-08-19T13:06:37;26.20;73.50
23556;DHT22;11956;53.184;8.578;2022-08-19T13:09:38;26.30;74.40
23556;DHT22;11956;53.184;8.578;2022-08-19T13:12:42;26.50;75.40
23556;DHT22;11956;53.184;8.578;2022-08-19T13:15:44;26.50;73.00
23556;DHT22;11956;53.184;8.578;2022-08-19T13:18:46;26.40;73.10
23556;DHT22;11956;53.184;8.578;2022-08-19T13:21:50;26.50;72.80
23556;DHT22;11956;53.184;8.578;2022-08-19T13:24:51;26.40;74.50
23556;DHT22;11956;53.184;8.578;2022-08-19T13:27:53;26.50;74.70
23556;DHT22;11956;53.184;8.578;2022-08-19T13:30:55;26.50;74.20
23556;DHT22;11956;53.184;8.578;2022-08-19T13:34:15;26.30;75.20
23556;DHT22;11956;53.184;8.578;2022-08-19T13:37:17;26.40;75.90
23556;DHT22;11956;53.184;8.578;2022-08-19T13:40:38;26.30;75.60
23556;DHT22;11956;53.184;8.578;2022-08-19T13:43:40;26.30;75.90
23556;DHT22;11956;53.184;8.578;2022-08-19T13:46:42;26.50;76.50
23556;DHT22;11956;53.184;8.578;2022-08-19T13:49:44;26.70;75.30
23556;DHT22;11956;53.184;8.578;2022-08-19T13:52:45;26.90;75.40
23556;DHT22;11956;53.184;8.578;2022-08-19T13:55:47;26.80;74.10
23556;DHT22;11956;53.184;8.578;2022-08-19T13:58:50;26.70;74.30
23556;DHT22;11956;53.184;8.578;2022-08-19T14:01:51;26.60;74.70
23556;DHT22;11956;53.184;8.578;2022-08-19T14:04:53;26.50;74.30
23556;DHT22;11956;53.184;8.578;2022-08-19T14:07:55;26.60;74.70
23556;DHT22;11956;53.184;8.578;2022-08-19T14:10:56;26.60;75.50
23556;DHT22;11956;53.184;8.578;2022-08-19T14:13:57;26.50;73.80
23556;DHT22;11956;53.184;8.578;2022-08-19T14:16:58;26.40;75.60
23556;DHT22;11956;53.184;8.578;2022-08-19T14:20:01;26.50;75.70
23556;DHT22;11956;53.184;8.578;2022-08-19T14:23:08;26.50;75.00
23556;DHT22;11956;53.184;8.578;2022-08-19T14:26:13;26.40;76.00
23556;DHT22;11956;53.184;8.578;2022-08-19T14:29:16;26.50;76.50
23556;DHT22;11956;53.184;8.578;2022-08-19T14:32:18;26.50;77.40
23556;DHT22;11956;53.184;8.578;2022-08-19T14:35:19;26.50;75.60
23556;DHT22;11956;53.184;8.578;2022-08-19T14:38:21;26.40;75.80
23556;DHT22;11956;53.184;8.578;2022-08-19T14:41:23;26.30;76.50
23556;DHT22;11956;53.184;8.578;2022-08-19T14:44:24;26.20;76.60
23556;DHT22;11956;53.184;8.578;2022-08-19T14:47:25;26.10;76.50
23556;DHT22;11956;53.184;8.578;2022-08-19T14:50:27;26.10;78.70
23556;DHT22;11956;53.184;8.578;2022-08-19T14:53:28;26.00;78.10
23556;DHT22;11956;53.184;8.578;2022-08-19T14:56:30;26.10;77.60
23556;DHT22;11956;53.184;8.578;2022-08-19T14:59:31;26.10;76.70
23556;DHT22;11956;53.184;8.578;2022-08-19T15:02:32;26.20;77.20
23556;DHT22;11956;53.184;8.578;2022-08-19T15:05:33;26.30;77.40
23556;DHT22;11956;53.184;8.578;2022-08-19T15:08:35;26.30;75.00
23556;DHT22;11956;53.184;8.578;2022-08-19T15:11:39;26.30;75.60
23556;DHT22;11956;53.184;8.578;2022-08-19T15:14:40;26.30;77.50
23556;DHT22;11956;53.184;8.578;2022-08-19T15:17:46;26.20;77.20
23556;DHT22;11956;53.184;8.578;2022-08-19T15:20:50;26.20;77.00
23556;DHT22;11956;53.184;8.578;2022-08-19T15:23:52;26.20;78.40
23556;DHT22;11956;53.184;8.578;2022-08-19T15:26:54;26.00;78.10
23556;DHT22;11956;53.184;8.578;2022-08-19T15:29:56;26.00;78.10
23556;DHT22;11956;53.184;8.578;2022-08-19T15:32:57;26.00;79.30
23556;DHT22;11956;53.184;8.578;2022-08-19T15:35:59;26.10;79.00
23556;DHT22;11956;53.184;8.578;2022-08-19T15:39:00;26.10;78.80
23556;DHT22;11956;53.184;8.578;2022-08-19T15:42:01;26.20;79.40
23556;DHT22;11956;53.184;8.578;2022-08-19T15:45:05;26.20;78.30
23556;DHT22;11956;53.184;8.578;2022-08-19T15:48:07;26.20;78.40
23556;DHT22;11956;53.184;8.578;2022-08-19T15:51:08;26.20;78.60
23556;DHT22;11956;53.184;8.578;2022-08-19T15:54:11;26.20;78.90
23556;DHT22;11956;53.184;8.578;2022-08-19T15:57:14;26.20;77.90
23556;DHT22;11956;53.184;8.578;2022-08-19T16:00:21;26.10;78.50
23556;DHT22;11956;53.184;8.578;2022-08-19T16:03:40;26.10;78.60
23556;DHT22;11956;53.184;8.578;2022-08-19T16:07:00;26.10;79.70
23556;DHT22;11956;53.184;8.578;2022-08-19T16:10:04;26.00;78.70
23556;DHT22;11956;53.184;8.578;2022-08-19T16:13:05;26.00;78.70
23556;DHT22;11956;53.184;8.578;2022-08-19T16:16:08;26.00;80.10
23556;DHT22;11956;53.184;8.578;2022-08-19T16:19:09;25.90;80.50
23556;DHT22;11956;53.184;8.578;2022-08-19T16:22:11;25.90;80.40
23556;DHT22;11956;53.184;8.578;2022-08-19T16:25:12;25.90;81.00
23556;DHT22;11956;53.184;8.578;2022-08-19T16:28:14;26.00;81.80
23556;DHT22;11956;53.184;8.578;2022-08-19T16:31:15;26.00;82.40
23556;DHT22;11956;53.184;8.578;2022-08-19T16:34:16;25.90;82.50
23556;DHT22;11956;53.184;8.578;2022-08-19T16:37:17;25.80;82.70
23556;DHT22;11956;53.184;8.578;2022-08-19T16:40:18;25.80;83.50
23556;DHT22;11956;53.184;8.578;2022-08-19T16:43:21;25.70;84.10
23556;DHT22;11956;53.184;8.578;2022-08-19T16:46:23;25.70;84.60
23556;DHT22;11956;53.184;8.578;2022-08-19T16:49:24;25.70;84.80
23556;DHT22;11956;53.184;8.578;2022-08-19T16:52:25;25.70;85.00
23556;DHT22;11956;53.184;8.578;2022-08-19T16:55:26;25.60;84.40
23556;DHT22;11956;53.184;8.578;2022-08-19T16:58:28;25.60;85.00
23556;DHT22;11956;53.184;8.578;2022-08-19T17:01:33;25.60;85.50
23556;DHT22;11956;53.184;8.578;2022-08-19T17:04:34;25.60;85.20
23556;DHT22;11956;53.184;8.578;2022-08-19T17:07:35;25.60;85.20
23556;DHT22;11956;53.184;8.578;2022-08-19T17:10:36;25.60;85.40
23556;DHT22;11956;53.184;8.578;2022-08-19T17:13:39;25.60;85.60
23556;DHT22;11956;53.184;8.578;2022-08-19T17:16:40;25.50;86.90
23556;DHT22;11956;53.184;8.578;2022-08-19T17:19:41;25.50;86.70
23556;DHT22;11956;53.184;8.578;2022-08-19T17:22:42;25.50;87.20
23556;DHT22;11956;53.184;8.578;2022-08-19T17:25:43;25.50;87.60
23556;DHT22;11956;53.184;8.578;2022-08-19T17:28:47;25.40;87.90
23556;DHT22;11956;53.184;8.578;2022-08-19T17:31:49;25.30;87.90
23556;DHT22;11956;53.184;8.578;2022-08-19T17:34:51;25.30;89.10
23556;DHT22;11956;53.184;8.578;2022-08-19T17:37:53;25.20;89.70
23556;DHT22;11956;53.184;8.578;2022-08-19T17:40:54;25.20;90.20
23556;DHT22;11956;53.184;8.578;2022-08-19T17:44:04;25.10;90.70
23556;DHT22;11956;53.184;8.578;2022-08-19T17:47:06;25.00;91.10
23556;DHT22;11956;53.184;8.578;2022-08-19T17:50:09;24.90;91.40
23556;DHT22;11956;53.184;8.578;2022-08-19T17:53:12;24.80;91.80
23556;DHT22;11956;53.184;8.578;2022-08-19T17:56:13;24.70;92.30
23556;DHT22;11956;53.184;8.578;2022-08-19T17:59:14;24.60;92.90
23556;DHT22;11956;53.184;8.578;2022-08-19T18:02:16;24.50;93.60
23556;DHT22;11956;53.184;8.578;2022-08-19T18:05:19;24.40;94.20
23556;DHT22;11956;53.184;8.578;2022-08-19T18:08:25;24.30;94.60
23556;DHT22;11956;53.184;8.578;2022-08-19T18:11:25;24.20;94.90
23556;DHT22;11956;53.184;8.578;2022-08-19T18:14:30;24.10;95.50
23556;DHT22;11956;53.184;8.578;2022-08-19T18:17:33;24.00;96.10
23556;DHT22;11956;53.184;8.578;2022-08-19T18:20:36;24.00;97.60
23556;DHT22;11956;53.184;8.578;2022-08-19T18:23:37;23.90;98.10
23556;DHT22;11956;53.184;8.578;2022-08-19T18:26:39;23.80;98.80
23556;DHT22;11956;53.184;8.578;2022-08-19T18:29:39;23.80;99.70
23556;DHT22;11956;53.184;8.578;2022-08-19T18:32:41;23.70;99.90
23556;DHT22;11956;53.184;8.578;2022-08-19T18:35:45;23.70;99.90
23556;DHT22;11956;53.184;8.578;2022-08-19T18:38:48;23.60;99.90
23556;DHT22;11956;53.184;8.578;2022-08-19T18:42:13;23.60;99.90
23556;DHT22;11956;53.184;8.578;2022-08-19T18:45:33;23.60;99.90
23556;DHT22;11956;53.184;8.578;2022-08-19T18:48:53;23.60;99.90
23556;DHT22;11956;53.184;8.578;2022-08-19T18:52:06;23.50;99.90
23556;DHT22;11956;53.184;8.578;2022-08-19T18:55:07;23.40;99.90
23556;DHT22;11956;53.184;8.578;2022-08-19T18:58:08;23.30;99.90
23556;DHT22;11956;53.184;8.578;2022-08-19T19:01:18;23.20;99.90
23556;DHT22;11956;53.184;8.578;2022-08-19T19:04:26;23.00;99.90
23556;DHT22;11956;53.184;8.578;2022-08-19T19:07:33;22.90;99.90
23556;DHT22;11956;53.184;8.578;2022-08-19T19:10:34;22.80;99.90
23556;DHT22;11956;53.184;8.578;2022-08-19T19:13:36;22.70;99.90
23556;DHT22;11956;53.184;8.578;2022-08-19T19:16:40;22.50;99.90
23556;DHT22;11956;53.184;8.578;2022-08-19T19:19:45;22.40;99.90
23556;DHT22;11956;53.184;8.578;2022-08-19T19:22:46;22.30;99.90
23556;DHT22;11956;53.184;8.578;2022-08-19T19:25:47;22.20;99.90